X  Sluiten METAR luchtvaart weer gegevens      LYNI Nis Airport
Temperatuur
33°C Temperatuur
21°C Dauwpunt
49% Vochtigheid



Wind
5 KM/U
3 MPH
1 M/S
3 KTS



80°
O
Huidig weer

Helder Helder
Luchtdruk 1006.77 (hPa) - 29.73 (inHg)
Zicht 6 (mijl) - 9.7 (km)
Vliegveld
Vliegveld code LYNI

Locatie : Nis Airport
Afstand: 63 (km)

Metar:
LYNI 221730Z 08003KT 030V110 CAVOK 33/21 Q1007 NOSIG

Tijd: 22-06-2024 19:30 CEST